createdAt,value
2019-02-26T00:00:58.664Z,6.63
2019-02-26T00:03:31.419Z,6.03
2019-02-26T00:06:03.660Z,7.10
2019-02-26T00:08:34.462Z,7.12
2019-02-26T00:11:06.717Z,7.47
2019-02-26T00:13:37.524Z,6.63
2019-02-26T00:16:10.577Z,7.17
2019-02-26T00:18:42.573Z,6.23
2019-02-26T00:21:13.202Z,6.20
2019-02-26T00:23:44.827Z,7.78
2019-02-26T00:26:17.755Z,7.67
2019-02-26T00:28:48.729Z,6.83
2019-02-26T00:31:21.536Z,7.03
2019-02-26T00:33:53.090Z,7.10
2019-02-26T00:36:23.711Z,8.10
2019-02-26T00:38:56.028Z,6.73
2019-02-26T00:41:26.925Z,7.37
2019-02-26T00:43:59.849Z,7.77
2019-02-26T00:46:32.631Z,7.13
2019-02-26T00:49:05.769Z,6.77
2019-02-26T00:51:36.480Z,6.80
2019-02-26T00:54:07.216Z,7.03
2019-02-26T00:56:39.326Z,7.37
2019-02-26T00:59:10.692Z,6.97
2019-02-26T01:01:44.121Z,7.37
2019-02-26T01:04:13.666Z,7.80
2019-02-26T01:06:44.295Z,7.43
2019-02-26T01:09:15.706Z,7.03
2019-02-26T01:11:47.623Z,7.50
2019-02-26T01:14:20.320Z,7.87
2019-02-26T01:16:52.394Z,7.83
2019-02-26T01:19:23.218Z,7.40
2019-02-26T01:21:54.155Z,7.33
2019-02-26T01:24:25.996Z,7.65
2019-02-26T01:26:57.256Z,8.47
2019-02-26T01:29:29.982Z,7.25
2019-02-26T01:32:02.185Z,7.77
2019-02-26T01:34:33.225Z,6.80
2019-02-26T01:37:05.556Z,8.60
2019-02-26T01:39:38.320Z,6.83
2019-02-26T01:42:10.688Z,7.57
2019-02-26T01:44:42.223Z,7.53
2019-02-26T01:47:13.571Z,6.87
2019-02-26T01:49:46.419Z,7.93
2019-02-26T01:52:17.481Z,8.00
2019-02-26T01:54:48.373Z,7.03
2019-02-26T01:57:20.620Z,8.06
2019-02-26T01:59:51.341Z,7.77
2019-02-26T02:02:24.797Z,6.90
2019-02-26T02:04:55.484Z,7.60
2019-02-26T02:07:28.722Z,7.47
2019-02-26T02:10:00.554Z,7.90
2019-02-26T02:12:34.264Z,6.73
2019-02-26T02:15:05.160Z,8.17
2019-02-26T02:17:37.790Z,7.87
2019-02-26T02:20:12.665Z,7.53
2019-02-26T02:22:44.407Z,7.90
2019-02-26T02:25:15.514Z,6.87
2019-02-26T02:27:49.728Z,7.40
2019-02-26T02:30:26.693Z,7.33
2019-02-26T02:32:56.857Z,7.77
2019-02-26T02:35:24.650Z,6.83
2019-02-26T02:37:57.076Z,6.93
2019-02-26T02:40:27.822Z,7.30
2019-02-26T02:42:58.388Z,7.03
2019-02-26T02:45:28.997Z,7.33
2019-02-26T02:48:00.716Z,7.93
2019-02-26T02:50:32.200Z,6.90
2019-02-26T02:53:04.028Z,7.37
2019-02-26T02:55:34.721Z,7.03
2019-02-26T02:58:05.492Z,6.80
2019-02-26T03:00:36.398Z,7.50
2019-02-26T03:03:06.950Z,7.17
2019-02-26T03:05:40.603Z,7.97
2019-02-26T03:08:11.456Z,6.80
2019-02-26T03:10:44.932Z,7.70
2019-02-26T03:13:16.817Z,8.07
2019-02-26T03:15:49.647Z,7.60
2019-02-26T03:18:20.795Z,7.50
2019-02-26T03:20:53.818Z,7.90
2019-02-26T03:23:24.127Z,7.23
2019-02-26T03:25:55.167Z,6.90
2019-02-26T03:28:25.962Z,6.83
2019-02-26T03:30:56.585Z,6.67
2019-02-26T03:33:27.464Z,7.42
2019-02-26T03:35:58.068Z,6.10
2019-02-26T03:38:28.954Z,7.40
2019-02-26T03:41:03.247Z,6.73
2019-02-26T03:43:34.014Z,6.90
2019-02-26T03:46:04.559Z,7.27
2019-02-26T03:48:35.422Z,7.05
2019-02-26T03:51:06.058Z,7.33
2019-02-26T03:53:39.033Z,7.12
2019-02-26T03:56:12.486Z,7.70
2019-02-26T03:58:41.743Z,7.23
2019-02-26T04:01:13.679Z,6.00
2019-02-26T04:03:44.912Z,5.63
2019-02-26T04:06:15.524Z,5.93
2019-02-26T04:08:48.567Z,6.80
2019-02-26T04:11:20.015Z,6.20
2019-02-26T04:13:52.151Z,5.87
2019-02-26T04:16:23.645Z,7.20
2019-02-26T04:18:54.576Z,7.50
2019-02-26T04:21:25.170Z,7.25
2019-02-26T04:23:55.729Z,7.20
2019-02-26T04:27:38.795Z,6.17
2019-02-26T04:31:03.143Z,7.17
2019-02-26T04:34:38.808Z,6.27
2019-02-26T04:38:20.740Z,6.83
2019-02-26T04:41:24.350Z,5.90
2019-02-26T04:44:52.356Z,6.13
2019-02-26T04:47:30.776Z,6.37
2019-02-26T04:50:02.841Z,6.60
2019-02-26T04:52:35.364Z,6.60
2019-02-26T04:55:05.775Z,6.80
2019-02-26T04:57:39.462Z,6.20
2019-02-26T05:00:10.630Z,6.33
2019-02-26T05:02:41.664Z,6.77
2019-02-26T05:05:12.281Z,6.40
2019-02-26T05:07:46.523Z,6.43
2019-02-26T05:10:15.245Z,6.77
2019-02-26T05:12:45.831Z,6.90
2019-02-26T05:15:20.287Z,6.63
2019-02-26T05:17:50.350Z,6.20
2019-02-26T05:20:21.197Z,7.33
2019-02-26T05:22:59.418Z,7.80
2019-02-26T05:25:27.892Z,6.57
2019-02-26T05:27:58.750Z,6.83
2019-02-26T05:30:29.419Z,6.43
2019-02-26T05:33:00.850Z,6.53
2019-02-26T05:35:32.452Z,6.55
2019-02-26T05:38:06.038Z,6.87
2019-02-26T05:40:37.715Z,7.20
2019-02-26T05:43:07.843Z,5.97
2019-02-26T05:45:38.446Z,6.83
2019-02-26T05:48:09.016Z,6.40
2019-02-26T05:50:42.012Z,6.87
2019-02-26T05:53:13.456Z,7.93
2019-02-26T05:55:47.489Z,7.23
2019-02-26T05:58:19.314Z,6.33
2019-02-26T06:00:49.152Z,6.20
2019-02-26T06:03:21.271Z,6.45
2019-02-26T06:05:54.928Z,6.30
2019-02-26T06:08:26.651Z,6.63
2019-02-26T06:10:56.955Z,6.50
2019-02-26T06:13:29.111Z,6.83
2019-02-26T06:16:02.271Z,6.80
2019-02-26T06:18:33.109Z,6.07
2019-02-26T06:21:03.945Z,6.93
2019-02-26T06:23:36.709Z,6.90
2019-02-26T06:26:14.173Z,6.60
2019-02-26T06:28:43.507Z,5.97
2019-02-26T06:31:17.474Z,6.33
2019-02-26T06:33:47.818Z,6.20
2019-02-26T06:36:21.048Z,6.37
2019-02-26T06:38:53.698Z,6.23
2019-02-26T06:41:23.491Z,6.60
2019-02-26T06:43:55.119Z,6.53
2019-02-26T06:46:27.184Z,7.23
2019-02-26T06:48:58.453Z,7.00
2019-02-26T06:51:30.766Z,6.60
2019-02-26T06:54:01.533Z,7.47
2019-02-26T06:56:34.466Z,7.17
2019-02-26T06:59:12.267Z,8.27
2019-02-26T07:01:43.102Z,9.17
2019-02-26T07:04:14.026Z,7.97
2019-02-26T07:06:44.921Z,8.13
2019-02-26T07:09:17.909Z,8.00
2019-02-26T07:11:48.078Z,7.80
2019-02-26T07:14:18.703Z,8.43
2019-02-26T07:16:49.292Z,7.63
2019-02-26T07:19:21.478Z,8.10
2019-02-26T07:21:53.041Z,6.87
2019-02-26T07:24:24.758Z,7.42
2019-02-26T07:26:56.338Z,7.33
2019-02-26T07:29:30.710Z,6.65
2019-02-26T07:32:00.115Z,7.13
2019-02-26T07:34:30.970Z,7.70
2019-02-26T07:37:01.605Z,6.13
2019-02-26T07:39:32.202Z,7.23
2019-02-26T07:42:03.033Z,7.20
2019-02-26T07:44:33.622Z,7.12
2019-02-26T07:47:06.708Z,7.10
2019-02-26T07:49:38.098Z,7.33
2019-02-26T07:52:09.042Z,6.43
2019-02-26T07:54:41.894Z,6.63
2019-02-26T07:57:12.056Z,6.37
2019-02-26T07:59:44.928Z,8.00
2019-02-26T08:02:15.179Z,7.03
2019-02-26T08:04:45.787Z,7.53
2019-02-26T08:07:16.335Z,7.87
2019-02-26T08:09:47.159Z,8.10
2019-02-26T08:12:17.800Z,7.20
2019-02-26T08:14:50.097Z,8.27
2019-02-26T08:17:21.498Z,7.80
2019-02-26T08:19:52.163Z,7.80
2019-02-26T08:22:24.684Z,8.40
2019-02-26T08:24:57.503Z,7.90
2019-02-26T08:27:28.558Z,7.65
2019-02-26T08:30:00.923Z,7.73
2019-02-26T08:32:32.212Z,8.37
2019-02-26T08:35:02.814Z,8.80
2019-02-26T08:37:33.395Z,8.33
2019-02-26T08:40:04.343Z,8.33
2019-02-26T08:42:35.447Z,11.18
2019-02-26T08:45:08.664Z,10.27
2019-02-26T08:47:39.220Z,8.85
2019-02-26T08:50:12.446Z,9.50
2019-02-26T08:52:45.827Z,9.13
2019-02-26T08:55:18.099Z,8.35
2019-02-26T08:57:51.256Z,8.48
2019-02-26T09:00:21.554Z,7.58
2019-02-26T09:02:54.443Z,7.67
2019-02-26T09:05:26.337Z,8.13
2019-02-26T09:07:57.354Z,8.80
2019-02-26T09:10:28.190Z,9.73
2019-02-26T09:12:58.885Z,8.23
2019-02-26T09:15:31.307Z,8.75
2019-02-26T09:18:02.127Z,7.35
2019-02-26T09:20:32.784Z,8.78
2019-02-26T09:23:03.344Z,7.67
2019-02-26T09:25:34.300Z,8.13
2019-02-26T09:28:05.166Z,7.25
2019-02-26T09:30:37.863Z,7.95
2019-02-26T09:33:10.522Z,7.13
2019-02-26T09:35:41.018Z,7.27
2019-02-26T09:38:12.307Z,7.53
2019-02-26T09:40:45.282Z,7.13
2019-02-26T09:43:17.277Z,7.93
2019-02-26T09:45:50.532Z,7.63
2019-02-26T09:48:22.040Z,7.63
2019-02-26T09:50:52.734Z,7.50
2019-02-26T09:53:23.604Z,7.90
2019-02-26T09:55:54.451Z,7.50
2019-02-26T09:58:25.432Z,7.90
2019-02-26T10:00:56.318Z,7.30
2019-02-26T10:03:29.564Z,7.72
2019-02-26T10:05:59.827Z,7.70
2019-02-26T10:08:30.748Z,8.10
2019-02-26T10:11:02.719Z,7.70
2019-02-26T10:13:33.831Z,7.40
2019-02-26T10:16:06.410Z,7.57
2019-02-26T10:18:37.405Z,7.62
2019-02-26T10:21:09.189Z,7.97
2019-02-26T10:23:41.067Z,8.40
2019-02-26T10:26:11.736Z,7.27
2019-02-26T10:28:43.428Z,7.87
2019-02-26T10:31:14.813Z,7.77
2019-02-26T10:33:46.381Z,8.23
2019-02-26T10:36:18.414Z,7.07
2019-02-26T10:38:50.934Z,8.13
2019-02-26T10:41:21.734Z,7.60
2019-02-26T10:43:52.457Z,7.20
2019-02-26T10:46:23.370Z,7.47
2019-02-26T10:48:54.245Z,7.00
2019-02-26T10:51:27.033Z,7.90
2019-02-26T10:53:59.962Z,6.90
2019-02-26T10:56:34.127Z,6.22
2019-02-26T10:59:06.093Z,6.80
2019-02-26T11:01:35.631Z,6.80
2019-02-26T11:04:06.484Z,6.70
2019-02-26T11:06:39.719Z,5.58
2019-02-26T11:09:17.393Z,5.80
2019-02-26T11:11:45.454Z,6.27
2019-02-26T11:14:17.379Z,4.53
2019-02-26T11:16:48.542Z,4.27
2019-02-26T11:19:19.424Z,4.20
2019-02-26T11:21:55.320Z,4.70
2019-02-26T11:24:23.859Z,3.47
2019-02-26T11:26:55.473Z,3.50
2019-02-26T11:29:28.648Z,4.50
2019-02-26T11:32:01.481Z,4.07
2019-02-26T11:34:33.339Z,4.67
2019-02-26T11:37:08.521Z,2.70
2019-02-26T11:39:36.489Z,3.37
2019-02-26T11:42:07.166Z,1.87
2019-02-26T11:44:37.813Z,2.33
2019-02-26T11:47:10.785Z,2.53
2019-02-26T11:49:41.850Z,2.37
2019-02-26T11:52:13.630Z,2.90
2019-02-26T11:54:44.701Z,3.13
2019-02-26T11:57:17.639Z,2.30
2019-02-26T11:59:47.916Z,1.90
2019-02-26T12:02:25.374Z,1.93
2019-02-26T12:04:50.950Z,2.07
2019-02-26T12:07:23.096Z,2.83
2019-02-26T12:09:55.560Z,1.73
2019-02-26T12:12:28.403Z,1.60
2019-02-26T12:15:02.015Z,1.60
2019-02-26T12:17:32.184Z,1.40
2019-02-26T12:20:02.849Z,1.23
2019-02-26T12:22:33.649Z,1.80
2019-02-26T12:25:08.268Z,1.60
2019-02-26T12:27:39.016Z,1.50
2019-02-26T12:30:15.840Z,1.97
2019-02-26T12:32:48.046Z,1.90
2019-02-26T12:35:19.622Z,3.07
2019-02-26T12:37:52.757Z,2.43
2019-02-26T12:40:25.279Z,2.50
2019-02-26T12:42:55.057Z,2.13
2019-02-26T12:45:28.388Z,2.20
2019-02-26T12:47:58.425Z,1.80
2019-02-26T12:50:30.830Z,2.33
2019-02-26T12:53:01.647Z,2.10
2019-02-26T12:55:35.844Z,2.15
2019-02-26T12:58:05.605Z,2.07
2019-02-26T13:00:38.368Z,2.20
2019-02-26T13:03:12.337Z,1.77
2019-02-26T13:05:43.552Z,2.63
2019-02-26T13:08:17.181Z,2.47
2019-02-26T13:10:50.559Z,2.60
2019-02-26T13:13:19.075Z,2.47
2019-02-26T13:15:49.691Z,2.73
2019-02-26T13:18:21.939Z,3.10
2019-02-26T13:20:59.388Z,2.73
2019-02-26T13:23:25.094Z,2.63
2019-02-26T13:25:55.728Z,2.60
2019-02-26T13:28:29.561Z,2.37
2019-02-26T13:31:02.368Z,2.37
2019-02-26T13:33:35.111Z,2.70
2019-02-26T13:36:04.976Z,3.20
2019-02-26T13:38:44.771Z,2.85
2019-02-26T13:41:27.658Z,3.00
2019-02-26T13:43:40.955Z,2.77
2019-02-26T13:46:11.873Z,3.20
2019-02-26T13:48:42.674Z,3.17
2019-02-26T13:51:13.282Z,3.50
2019-02-26T13:53:43.928Z,3.33
2019-02-26T13:56:14.704Z,3.37
2019-02-26T13:58:45.743Z,3.67
2019-02-26T14:01:16.419Z,3.57
2019-02-26T14:03:47.059Z,3.33
2019-02-26T14:06:17.799Z,3.87
2019-02-26T14:08:48.391Z,3.63
2019-02-26T14:11:18.955Z,3.43
2019-02-26T14:13:49.677Z,3.30
2019-02-26T14:16:21.984Z,3.74
2019-02-26T14:18:52.615Z,3.30
2019-02-26T14:21:23.829Z,4.42
2019-02-26T14:23:54.691Z,3.77
2019-02-26T14:26:25.323Z,4.27
2019-02-26T14:28:55.933Z,4.00
2019-02-26T14:31:26.833Z,4.30
2019-02-26T14:33:57.746Z,4.20
2019-02-26T14:36:28.585Z,4.03
2019-02-26T14:38:59.276Z,3.90
2019-02-26T14:41:30.234Z,3.87
2019-02-26T14:44:00.871Z,3.77
2019-02-26T14:46:32.071Z,4.28
2019-02-26T14:49:02.797Z,4.60
2019-02-26T14:51:34.054Z,4.35
2019-02-26T14:54:06.487Z,4.03
2019-02-26T14:56:37.348Z,3.90
2019-02-26T14:59:08.044Z,3.40
2019-02-26T15:01:39.066Z,3.20
2019-02-26T15:04:09.750Z,3.53
2019-02-26T15:06:40.736Z,3.03
2019-02-26T15:09:11.898Z,2.40
2019-02-26T15:11:42.560Z,3.33
2019-02-26T15:14:15.619Z,2.40
2019-02-26T15:16:46.187Z,3.07
2019-02-26T15:19:17.024Z,2.60
2019-02-26T15:21:47.815Z,2.37
2019-02-26T15:24:18.523Z,2.30
2019-02-26T15:26:49.169Z,2.30
2019-02-26T15:29:19.875Z,2.13
2019-02-26T15:31:50.831Z,1.80
2019-02-26T15:34:22.284Z,1.70
2019-02-26T15:36:53.070Z,1.90
2019-02-26T15:39:24.096Z,2.20
2019-02-26T15:41:54.932Z,1.70
2019-02-26T15:44:26.163Z,1.47
2019-02-26T15:46:59.597Z,1.53
2019-02-26T15:49:30.824Z,1.47
2019-02-26T15:52:01.747Z,1.70
2019-02-26T15:54:32.358Z,1.30
2019-02-26T15:57:03.057Z,1.50
2019-02-26T15:59:35.608Z,1.60
2019-02-26T16:02:06.343Z,1.37
2019-02-26T16:04:37.208Z,1.37
2019-02-26T16:07:07.854Z,1.37
2019-02-26T16:09:38.482Z,2.27
2019-02-26T16:12:09.072Z,1.90
2019-02-26T16:14:40.064Z,1.50
2019-02-26T16:17:10.921Z,2.00
2019-02-26T16:19:43.642Z,1.57
2019-02-26T16:22:14.433Z,2.10
2019-02-26T16:24:45.080Z,1.50
2019-02-26T16:27:15.942Z,1.70
2019-02-26T16:29:46.915Z,1.70
2019-02-26T16:32:17.581Z,2.00
2019-02-26T16:34:52.302Z,1.57
2019-02-26T16:37:22.258Z,1.70
2019-02-26T16:39:52.997Z,1.87
2019-02-26T16:42:24.082Z,1.53
2019-02-26T16:44:55.531Z,2.17
2019-02-26T16:47:27.319Z,2.23
2019-02-26T16:49:58.667Z,3.07
2019-02-26T16:52:30.359Z,2.40
2019-02-26T16:55:01.095Z,2.00
2019-02-26T16:57:32.289Z,2.25
2019-02-26T17:00:03.195Z,2.10
2019-02-26T17:02:34.255Z,2.00
2019-02-26T17:05:05.065Z,1.90
2019-02-26T17:07:36.223Z,1.95
2019-02-26T17:10:09.075Z,1.87
2019-02-26T17:12:40.361Z,1.95
2019-02-26T17:15:17.964Z,2.23
2019-02-26T17:17:48.729Z,2.60
2019-02-26T17:20:23.150Z,2.52
2019-02-26T17:22:54.012Z,2.50
2019-02-26T17:25:27.283Z,2.80
2019-02-26T17:27:57.298Z,2.60
2019-02-26T17:30:28.180Z,2.43
2019-02-26T17:32:59.102Z,3.07
2019-02-26T17:35:30.213Z,2.55
2019-02-26T17:38:01.137Z,2.83
2019-02-26T17:40:33.905Z,2.50
2019-02-26T17:43:05.156Z,3.52
2019-02-26T17:45:37.193Z,4.90
2019-02-26T17:48:08.539Z,4.30
2019-02-26T17:50:39.598Z,4.03
2019-02-26T17:53:10.509Z,3.57
2019-02-26T17:55:41.202Z,4.53
2019-02-26T17:58:12.075Z,4.53
2019-02-26T18:00:44.632Z,4.93
2019-02-26T18:03:15.345Z,3.40
2019-02-26T18:05:51.201Z,2.93
2019-02-26T18:08:19.106Z,2.70
2019-02-26T18:10:50.256Z,3.40
2019-02-26T18:13:22.342Z,3.15
2019-02-26T18:15:56.044Z,3.17
2019-02-26T18:18:25.540Z,2.70
2019-02-26T18:20:56.203Z,2.60
2019-02-26T18:23:27.103Z,3.00
2019-02-26T18:25:58.160Z,3.03
2019-02-26T18:28:28.854Z,2.87
2019-02-26T18:30:59.599Z,3.67
2019-02-26T18:33:30.478Z,2.83
2019-02-26T18:36:01.223Z,3.07
2019-02-26T18:38:32.587Z,4.03
2019-02-26T18:41:03.311Z,3.20
2019-02-26T18:43:34.466Z,4.03
2019-02-26T18:46:05.367Z,4.67
2019-02-26T18:48:36.310Z,4.20
2019-02-26T18:51:07.352Z,3.83
2019-02-26T18:53:38.400Z,4.28
2019-02-26T18:56:09.137Z,4.80
2019-02-26T18:58:41.801Z,4.50
2019-02-26T19:01:12.459Z,4.87
2019-02-26T19:03:43.307Z,4.27
2019-02-26T19:06:14.240Z,3.60
2019-02-26T19:08:45.373Z,4.10
2019-02-26T19:11:16.775Z,4.30
2019-02-26T19:13:47.925Z,4.03
2019-02-26T19:16:20.720Z,5.00
2019-02-26T19:18:51.294Z,4.23
2019-02-26T19:21:22.634Z,3.83
2019-02-26T19:23:53.430Z,4.53
2019-02-26T19:26:24.544Z,4.30
2019-02-26T19:28:56.765Z,4.30
2019-02-26T19:31:27.848Z,4.57
2019-02-26T19:33:58.596Z,4.17
2019-02-26T19:36:29.630Z,4.13
2019-02-26T19:39:00.958Z,3.60
2019-02-26T19:41:32.311Z,4.27
2019-02-26T19:44:03.293Z,4.60
2019-02-26T19:46:34.626Z,4.30
2019-02-26T19:49:05.784Z,4.33
2019-02-26T19:51:37.599Z,3.92
2019-02-26T19:54:08.508Z,7.57
2019-02-26T19:56:39.416Z,7.07
2019-02-26T19:59:13.511Z,4.50
2019-02-26T20:01:42.772Z,5.10
2019-02-26T20:04:13.539Z,5.00
2019-02-26T20:06:44.201Z,4.97
2019-02-26T20:09:16.609Z,4.33
2019-02-26T20:11:48.522Z,4.73
2019-02-26T20:14:21.736Z,5.47
2019-02-26T20:16:51.795Z,8.87
2019-02-26T20:19:22.725Z,6.30
2019-02-26T20:21:54.583Z,4.93
2019-02-26T20:24:25.470Z,4.87
2019-02-26T20:26:56.391Z,4.13
2019-02-26T20:29:27.372Z,4.68
2019-02-26T20:31:58.372Z,5.03
2019-02-26T20:34:29.403Z,6.03
2019-02-26T20:37:00.317Z,4.07
2019-02-26T20:39:31.010Z,4.10
2019-02-26T20:42:01.678Z,4.03
2019-02-26T20:44:32.522Z,4.00
2019-02-26T20:47:03.400Z,3.87
2019-02-26T20:49:34.393Z,4.67
2019-02-26T20:52:05.337Z,5.03
2019-02-26T20:54:36.607Z,6.17
2019-02-26T20:57:07.610Z,5.20
2019-02-26T20:59:40.321Z,4.90
2019-02-26T21:02:10.825Z,4.70
2019-02-26T21:04:41.461Z,4.80
2019-02-26T21:07:13.652Z,5.57
2019-02-26T21:09:44.388Z,5.60
2019-02-26T21:12:15.091Z,6.43
2019-02-26T21:14:45.852Z,5.33
2019-02-26T21:17:16.453Z,5.00
2019-02-26T21:19:47.375Z,5.00
2019-02-26T21:22:19.786Z,4.83
2019-02-26T21:24:50.788Z,4.57
2019-02-26T21:27:23.730Z,4.37
2019-02-26T21:29:55.411Z,5.67
2019-02-26T21:32:26.378Z,4.60
2019-02-26T21:34:57.296Z,5.00
2019-02-26T21:37:27.895Z,5.47
2019-02-26T21:39:58.596Z,5.03
2019-02-26T21:42:29.681Z,5.50
2019-02-26T21:45:00.526Z,5.60
2019-02-26T21:47:31.435Z,5.20
2019-02-26T21:50:02.459Z,5.28
2019-02-26T21:52:33.110Z,5.60
2019-02-26T21:55:03.683Z,5.80
2019-02-26T21:57:34.709Z,5.05
2019-02-26T22:00:06.240Z,5.30
2019-02-26T22:02:36.869Z,6.00
2019-02-26T22:05:08.254Z,5.37
2019-02-26T22:07:38.894Z,5.08
2019-02-26T22:10:11.767Z,5.70
2019-02-26T22:12:42.615Z,5.73
2019-02-26T22:15:14.628Z,7.10
2019-02-26T22:17:45.508Z,6.43
2019-02-26T22:20:23.451Z,5.33
2019-02-26T22:22:49.205Z,6.30
2019-02-26T22:25:19.957Z,6.70
2019-02-26T22:27:50.608Z,6.43
2019-02-26T22:30:24.781Z,6.55
2019-02-26T22:32:55.557Z,5.93
2019-02-26T22:35:26.530Z,6.53
2019-02-26T22:37:57.144Z,6.17
2019-02-26T22:40:29.240Z,6.83
2019-02-26T22:43:00.617Z,6.27
2019-02-26T22:45:31.505Z,6.70
2019-02-26T22:48:02.100Z,6.00
2019-02-26T22:50:32.732Z,6.33
2019-02-26T22:53:03.968Z,6.60
2019-02-26T22:55:35.790Z,6.47
2019-02-26T22:58:06.756Z,5.70
2019-02-26T23:01:01.411Z,6.30
2019-02-26T23:03:32.113Z,6.27
2019-02-26T23:06:02.679Z,6.70
2019-02-26T23:08:33.555Z,6.13
2019-02-26T23:11:04.494Z,6.13
2019-02-26T23:13:35.520Z,6.08
2019-02-26T23:16:06.520Z,6.00
2019-02-26T23:18:37.298Z,6.17
2019-02-26T23:21:08.338Z,6.23
2019-02-26T23:23:39.246Z,7.45
2019-02-26T23:26:10.061Z,6.30
2019-02-26T23:28:40.795Z,6.50
2019-02-26T23:31:12.184Z,6.40
2019-02-26T23:33:42.807Z,6.43
2019-02-26T23:36:14.025Z,6.50
2019-02-26T23:38:44.785Z,6.50
2019-02-26T23:41:15.603Z,6.67
2019-02-26T23:43:46.531Z,6.92
2019-02-26T23:46:17.181Z,6.83
2019-02-26T23:48:47.777Z,6.97
2019-02-26T23:51:21.035Z,6.63
2019-02-26T23:53:51.124Z,6.83
2019-02-26T23:56:23.058Z,6.33
2019-02-26T23:58:53.761Z,6.13
